createdAt,value
2023-01-28T00:00:48.176Z,80.40
2023-01-28T00:02:51.292Z,80.41
2023-01-28T00:04:53.718Z,79.59
2023-01-28T00:06:55.648Z,80.04
2023-01-28T00:08:57.657Z,79.77
2023-01-28T00:11:06.925Z,80.60
2023-01-28T00:13:15.726Z,81.00
2023-01-28T00:15:32.858Z,79.37
2023-01-28T00:17:34.802Z,80.16
2023-01-28T00:20:11.027Z,79.78
2023-01-28T00:22:34.358Z,79.53
2023-01-28T00:24:41.287Z,79.27
2023-01-28T00:26:51.698Z,79.62
2023-01-28T00:29:03.125Z,79.84
2023-01-28T00:31:21.224Z,79.53
2023-01-28T00:33:26.210Z,79.06
2023-01-28T00:35:30.333Z,78.99
2023-01-28T00:37:38.380Z,78.92
2023-01-28T00:39:40.395Z,79.27
2023-01-28T00:41:42.382Z,79.73
2023-01-28T00:43:45.646Z,79.67
2023-01-28T00:45:51.733Z,79.82
2023-01-28T00:47:54.686Z,79.08
2023-01-28T00:49:56.844Z,79.70
2023-01-28T00:51:58.766Z,79.93
2023-01-28T00:54:02.943Z,80.04
2023-01-28T00:56:14.033Z,79.68
2023-01-28T00:58:32.817Z,79.88
2023-01-28T01:00:42.852Z,79.46
2023-01-28T01:02:54.063Z,79.16
2023-01-28T01:04:59.747Z,80.06
2023-01-28T01:07:01.626Z,79.79
2023-01-28T01:09:08.601Z,79.50
2023-01-28T01:11:12.401Z,79.03
2023-01-28T01:13:16.312Z,79.22
2023-01-28T01:15:22.538Z,79.30
2023-01-28T01:17:24.795Z,79.33
2023-01-28T01:19:30.343Z,79.74
2023-01-28T01:21:33.373Z,79.94
2023-01-28T01:23:35.355Z,79.65
2023-01-28T01:25:40.103Z,80.64
2023-01-28T01:27:44.168Z,80.66
2023-01-28T01:29:47.125Z,80.92
2023-01-28T01:31:52.124Z,80.59
2023-01-28T01:33:58.031Z,80.78
2023-01-28T01:36:06.556Z,80.81
2023-01-28T01:38:08.944Z,80.78
2023-01-28T01:40:17.931Z,81.08
2023-01-28T01:42:21.239Z,80.79
2023-01-28T01:45:34.289Z,79.73
2023-01-28T01:47:48.615Z,79.79
2023-01-28T01:49:56.514Z,80.12
2023-01-28T01:52:09.295Z,79.92
2023-01-28T01:54:20.823Z,79.41
2023-01-28T01:56:53.821Z,79.67
2023-01-28T01:58:58.047Z,79.44
2023-01-28T02:01:00.962Z,79.63
2023-01-28T02:03:11.372Z,79.57
2023-01-28T02:05:18.193Z,80.07
2023-01-28T02:07:23.326Z,79.82
2023-01-28T02:09:38.646Z,80.16
2023-01-28T02:11:48.798Z,80.08
2023-01-28T02:13:57.277Z,80.04
2023-01-28T02:16:16.141Z,79.96
2023-01-28T02:18:28.401Z,79.83
2023-01-28T02:21:08.506Z,80.29
2023-01-28T02:23:39.765Z,80.34
2023-01-28T02:26:10.805Z,80.10
2023-01-28T02:28:40.091Z,79.85
2023-01-28T02:31:17.944Z,80.29
2023-01-28T02:33:40.712Z,80.16
2023-01-28T02:36:06.438Z,80.19
2023-01-28T02:38:09.900Z,79.92
2023-01-28T02:40:25.573Z,80.29
2023-01-28T02:42:37.369Z,79.88
2023-01-28T02:44:40.062Z,80.19
2023-01-28T02:47:06.043Z,79.72
2023-01-28T02:49:26.797Z,80.08
2023-01-28T02:51:48.366Z,80.08
2023-01-28T02:54:17.353Z,80.88
2023-01-28T02:56:46.254Z,80.36
2023-01-28T02:59:34.244Z,80.48
2023-01-28T03:01:43.061Z,80.41
2023-01-28T03:04:02.081Z,80.64
2023-01-28T03:06:10.766Z,81.25
2023-01-28T03:08:38.283Z,81.58
2023-01-28T03:10:40.336Z,81.75
2023-01-28T03:13:10.890Z,80.69
2023-01-28T03:15:40.962Z,81.34
2023-01-28T03:18:10.523Z,81.60
2023-01-28T03:20:32.057Z,81.68
2023-01-28T03:22:58.922Z,82.02
2023-01-28T03:25:21.273Z,81.75
2023-01-28T03:27:56.057Z,81.99
2023-01-28T03:30:34.623Z,82.20
2023-01-28T03:32:55.967Z,82.53
2023-01-28T03:35:17.183Z,82.68
2023-01-28T03:37:20.468Z,82.15
2023-01-28T03:39:28.712Z,82.85
2023-01-28T03:41:30.619Z,82.13
2023-01-28T03:43:32.813Z,82.04
2023-01-28T03:45:35.204Z,81.90
2023-01-28T03:47:37.511Z,81.99
2023-01-28T03:49:51.186Z,82.47
2023-01-28T03:51:53.026Z,82.23
2023-01-28T03:53:54.865Z,82.34
2023-01-28T03:55:57.072Z,82.40
2023-01-28T03:58:11.176Z,82.50
2023-01-28T04:00:17.444Z,82.89
2023-01-28T04:02:22.303Z,82.53
2023-01-28T04:04:24.881Z,82.71
2023-01-28T04:06:26.903Z,82.88
2023-01-28T04:08:34.109Z,82.79
2023-01-28T04:10:36.014Z,82.84
2023-01-28T04:12:38.097Z,82.34
2023-01-28T04:14:40.407Z,82.44
2023-01-28T04:16:42.965Z,82.83
2023-01-28T04:18:47.383Z,82.87
2023-01-28T04:20:52.386Z,82.64
2023-01-28T04:22:56.280Z,82.61
2023-01-28T04:24:58.147Z,82.48
2023-01-28T04:27:00.200Z,82.95
2023-01-28T04:29:02.119Z,83.03
2023-01-28T04:31:06.145Z,83.24
2023-01-28T04:33:11.665Z,83.14
2023-01-28T04:35:15.896Z,83.56
2023-01-28T04:37:18.488Z,83.55
2023-01-28T04:39:28.523Z,83.20
2023-01-28T04:41:34.499Z,83.45
2023-01-28T04:43:36.359Z,83.27
2023-01-28T04:45:39.298Z,82.86
2023-01-28T04:47:46.304Z,82.69
2023-01-28T04:49:49.249Z,82.92
2023-01-28T04:51:56.995Z,82.85
2023-01-28T04:54:07.077Z,82.70
2023-01-28T04:56:16.048Z,82.93
2023-01-28T04:58:28.743Z,83.07
2023-01-28T05:00:31.128Z,82.68
2023-01-28T05:02:36.803Z,82.23
2023-01-28T05:04:40.701Z,82.29
2023-01-28T05:06:49.605Z,82.16
2023-01-28T05:08:54.583Z,82.59
2023-01-28T05:11:18.246Z,82.46
2023-01-28T05:13:34.590Z,81.96
2023-01-28T05:15:44.535Z,82.40
2023-01-28T05:17:47.243Z,81.91
2023-01-28T05:19:50.238Z,82.57
2023-01-28T05:21:53.208Z,82.07
2023-01-28T05:23:56.119Z,82.72
2023-01-28T05:25:59.163Z,81.77
2023-01-28T05:28:02.089Z,81.67
2023-01-28T05:30:08.830Z,81.85
2023-01-28T05:32:10.918Z,81.73
2023-01-28T05:34:15.077Z,82.10
2023-01-28T05:36:16.974Z,81.70
2023-01-28T05:38:19.945Z,81.65
2023-01-28T05:40:22.009Z,82.28
2023-01-28T05:42:24.925Z,82.07
2023-01-28T05:44:27.905Z,82.19
2023-01-28T05:46:36.116Z,81.68
2023-01-28T05:48:51.177Z,81.89
2023-01-28T05:50:57.332Z,81.70
2023-01-28T05:52:59.189Z,82.14
2023-01-28T05:55:03.386Z,81.61
2023-01-28T05:57:08.367Z,81.74
2023-01-28T05:59:15.603Z,81.82
2023-01-28T06:01:18.550Z,82.00
2023-01-28T06:03:20.433Z,82.62
2023-01-28T06:05:22.409Z,82.63
2023-01-28T06:07:30.357Z,82.09
2023-01-28T06:09:33.308Z,82.36
2023-01-28T06:11:35.205Z,82.37
2023-01-28T06:13:37.938Z,82.70
2023-01-28T06:15:40.856Z,82.52
2023-01-28T06:17:42.781Z,82.13
2023-01-28T06:19:44.732Z,82.41
2023-01-28T06:21:47.680Z,82.09
2023-01-28T06:23:49.595Z,82.43
2023-01-28T06:25:56.547Z,82.15
2023-01-28T06:27:59.571Z,82.49
2023-01-28T06:30:02.201Z,82.44
2023-01-28T06:32:04.491Z,82.56
2023-01-28T06:34:07.407Z,82.25
2023-01-28T06:36:10.564Z,82.43
2023-01-28T06:38:13.103Z,82.75
2023-01-28T06:40:15.458Z,82.85
2023-01-28T06:42:20.643Z,82.51
2023-01-28T06:44:23.739Z,82.74
2023-01-28T06:46:25.772Z,83.03
2023-01-28T06:48:28.678Z,82.67
2023-01-28T06:50:31.685Z,83.36
2023-01-28T06:52:41.983Z,83.49
2023-01-28T06:54:43.906Z,83.46
2023-01-28T06:56:47.969Z,82.90
2023-01-28T06:58:50.159Z,82.81
2023-01-28T07:01:01.782Z,82.97
2023-01-28T07:03:04.136Z,83.28
2023-01-28T07:05:08.528Z,83.09
2023-01-28T07:07:12.489Z,83.45
2023-01-28T07:09:14.384Z,83.64
2023-01-28T07:11:17.194Z,83.99
2023-01-28T07:13:19.302Z,83.81
2023-01-28T07:15:21.212Z,83.66
2023-01-28T07:17:23.204Z,83.90
2023-01-28T07:19:25.141Z,83.49
2023-01-28T07:21:39.941Z,83.87
2023-01-28T07:23:41.910Z,83.88
2023-01-28T07:25:43.856Z,83.99
2023-01-28T07:27:55.946Z,83.51
2023-01-28T07:29:58.907Z,84.20
2023-01-28T07:32:02.963Z,84.09
2023-01-28T07:34:04.853Z,84.01
2023-01-28T07:36:07.314Z,84.05
2023-01-28T07:38:18.486Z,83.57
2023-01-28T07:40:20.694Z,83.47
2023-01-28T07:42:27.735Z,82.96
2023-01-28T07:44:33.010Z,82.96
2023-01-28T07:46:41.602Z,82.76
2023-01-28T07:48:43.550Z,82.57
2023-01-28T07:50:48.727Z,83.38
2023-01-28T07:52:50.862Z,82.77
2023-01-28T07:54:52.793Z,82.63
2023-01-28T07:56:55.681Z,82.81
2023-01-28T07:59:05.830Z,82.78
2023-01-28T08:01:07.819Z,82.67
2023-01-28T08:03:18.882Z,82.84
2023-01-28T08:05:23.301Z,82.83
2023-01-28T08:07:25.993Z,82.70
2023-01-28T08:09:38.666Z,82.99
2023-01-28T08:11:46.532Z,82.90
2023-01-28T08:14:02.383Z,82.90
2023-01-28T08:16:08.295Z,82.61
2023-01-28T08:18:18.056Z,82.39
2023-01-28T08:20:44.800Z,82.61
2023-01-28T08:22:47.738Z,82.21
2023-01-28T08:24:52.694Z,82.52
2023-01-28T08:27:13.689Z,82.63
2023-01-28T08:29:17.815Z,82.98
2023-01-28T08:31:21.839Z,82.68
2023-01-28T08:33:25.867Z,82.46
2023-01-28T08:35:32.554Z,82.80
2023-01-28T08:37:34.674Z,82.40
2023-01-28T08:39:37.660Z,82.52
2023-01-28T08:41:39.579Z,82.14
2023-01-28T08:43:42.531Z,81.96
2023-01-28T08:45:44.555Z,81.56
2023-01-28T08:48:00.924Z,81.43
2023-01-28T08:50:06.418Z,81.26
2023-01-28T08:52:13.339Z,81.70
2023-01-28T08:54:15.275Z,82.00
2023-01-28T08:56:18.299Z,81.76
2023-01-28T08:58:21.609Z,81.09
2023-01-28T09:00:27.607Z,80.92
2023-01-28T09:02:32.466Z,81.57
2023-01-28T09:04:36.434Z,81.20
2023-01-28T09:06:47.596Z,81.61
2023-01-28T09:08:58.358Z,81.66
2023-01-28T09:11:06.496Z,81.94
2023-01-28T09:13:12.790Z,81.85
2023-01-28T09:15:15.132Z,81.85
2023-01-28T09:17:17.514Z,80.88
2023-01-28T09:19:19.661Z,81.35
2023-01-28T09:21:23.887Z,81.41
2023-01-28T09:23:26.011Z,81.41
2023-01-28T09:25:36.458Z,81.51
2023-01-28T09:27:47.304Z,81.54
2023-01-28T09:29:49.346Z,82.19
2023-01-28T09:31:58.631Z,81.50
2023-01-28T09:34:01.880Z,81.84
2023-01-28T09:36:11.808Z,81.70
2023-01-28T09:38:15.079Z,81.10
2023-01-28T09:40:38.663Z,80.99
2023-01-28T09:42:59.895Z,80.85
2023-01-28T09:45:20.845Z,80.85
2023-01-28T09:47:56.758Z,81.29
2023-01-28T09:50:03.922Z,81.13
2023-01-28T09:52:06.004Z,81.67
2023-01-28T09:54:43.289Z,81.02
2023-01-28T09:56:47.634Z,81.34
2023-01-28T09:58:49.535Z,80.84
2023-01-28T10:01:00.695Z,81.01
2023-01-28T10:03:27.356Z,81.05
2023-01-28T10:05:48.650Z,80.79
2023-01-28T10:08:14.542Z,80.37
2023-01-28T10:10:29.806Z,81.00
2023-01-28T10:13:09.721Z,80.96
2023-01-28T10:15:17.614Z,81.07
2023-01-28T10:17:30.604Z,81.53
2023-01-28T10:19:41.861Z,81.08
2023-01-28T10:22:00.238Z,80.87
2023-01-28T10:24:26.211Z,81.21
2023-01-28T10:26:41.892Z,80.71
2023-01-28T10:28:45.794Z,80.88
2023-01-28T10:30:49.486Z,81.56
2023-01-28T10:33:05.134Z,81.24
2023-01-28T10:35:07.312Z,81.00
2023-01-28T10:37:17.374Z,81.64
2023-01-28T10:39:22.692Z,80.82
2023-01-28T10:41:27.061Z,80.67
2023-01-28T10:43:39.083Z,80.79
2023-01-28T10:46:05.324Z,80.68
2023-01-28T10:48:43.237Z,80.77
2023-01-28T10:51:01.989Z,80.83
2023-01-28T10:53:10.901Z,80.00
2023-01-28T10:55:14.843Z,80.04
2023-01-28T10:57:19.342Z,80.48
2023-01-28T10:59:29.548Z,79.92
2023-01-28T11:02:22.588Z,80.36
2023-01-28T11:04:34.177Z,80.20
2023-01-28T11:06:37.117Z,80.04
2023-01-28T11:08:48.348Z,80.60
2023-01-28T11:10:52.352Z,80.71
2023-01-28T11:13:06.591Z,80.69
2023-01-28T11:15:18.579Z,79.88
2023-01-28T11:17:24.953Z,79.62
2023-01-28T11:19:34.969Z,79.94
2023-01-28T11:21:37.925Z,80.03
2023-01-28T11:23:59.572Z,79.95
2023-01-28T11:26:18.201Z,79.88
2023-01-28T11:28:29.042Z,79.58
2023-01-28T11:30:34.944Z,80.32
2023-01-28T11:32:36.920Z,80.55
2023-01-28T11:34:50.615Z,80.31
2023-01-28T11:36:55.757Z,80.39
2023-01-28T11:38:59.150Z,79.10
2023-01-28T11:41:05.499Z,79.83
2023-01-28T11:43:16.203Z,80.03
2023-01-28T11:45:22.965Z,79.53
2023-01-28T11:47:39.588Z,78.99
2023-01-28T11:49:49.819Z,79.01
2023-01-28T11:52:18.178Z,79.30
2023-01-28T11:54:39.732Z,78.84
2023-01-28T11:57:06.144Z,79.19
2023-01-28T11:59:19.619Z,78.51
2023-01-28T12:02:00.091Z,78.50
2023-01-28T12:04:47.117Z,79.25
2023-01-28T12:07:26.754Z,79.05
2023-01-28T12:09:43.954Z,78.58
2023-01-28T12:12:14.137Z,78.26
2023-01-28T12:14:25.363Z,79.07
2023-01-28T12:17:00.943Z,78.91
2023-01-28T12:19:20.452Z,78.30
2023-01-28T12:21:33.249Z,78.59
2023-01-28T12:24:07.832Z,79.05
2023-01-28T12:26:37.560Z,78.87
2023-01-28T12:28:56.896Z,78.93
2023-01-28T12:31:35.027Z,78.99
2023-01-28T12:34:15.658Z,79.38
2023-01-28T12:36:30.007Z,79.09
2023-01-28T12:38:47.772Z,79.35
2023-01-28T12:41:16.339Z,79.24
2023-01-28T12:44:00.850Z,78.75
2023-01-28T12:46:11.310Z,79.27
2023-01-28T12:48:33.084Z,79.54
2023-01-28T12:50:45.448Z,78.72
2023-01-28T12:53:00.882Z,78.92
2023-01-28T12:55:18.955Z,78.54
2023-01-28T12:57:34.476Z,78.59
2023-01-28T13:00:14.390Z,77.77
2023-01-28T13:02:40.201Z,78.35
2023-01-28T13:05:15.291Z,78.06
2023-01-28T13:07:43.312Z,78.86
2023-01-28T13:10:06.788Z,78.75
2023-01-28T13:12:13.792Z,78.17
2023-01-28T13:14:16.519Z,78.35
2023-01-28T13:16:21.288Z,77.64
2023-01-28T13:18:44.299Z,78.65
2023-01-28T13:20:54.159Z,78.91
2023-01-28T13:23:04.071Z,78.96
2023-01-28T13:25:30.122Z,79.08
2023-01-28T13:27:32.092Z,79.74
2023-01-28T13:29:34.928Z,79.18
2023-01-28T13:31:41.662Z,79.23
2023-01-28T13:33:47.790Z,78.91
2023-01-28T13:35:55.636Z,78.71
2023-01-28T13:38:07.282Z,79.62
2023-01-28T13:40:15.124Z,79.63
2023-01-28T13:42:27.681Z,78.38
2023-01-28T13:44:33.654Z,78.78
2023-01-28T13:46:36.598Z,78.97
2023-01-28T13:48:59.188Z,78.67
2023-01-28T13:51:03.330Z,79.20
2023-01-28T13:53:18.091Z,79.39
2023-01-28T13:55:43.064Z,79.49
2023-01-28T13:58:05.182Z,79.15
2023-01-28T14:00:47.222Z,78.98
2023-01-28T14:03:14.009Z,79.09
2023-01-28T14:05:19.206Z,78.75
2023-01-28T14:07:58.311Z,79.06
2023-01-28T14:10:09.227Z,78.62
2023-01-28T14:12:11.164Z,78.40
2023-01-28T14:14:16.021Z,78.83
2023-01-28T14:16:41.823Z,79.13
2023-01-28T14:18:45.991Z,79.57
2023-01-28T14:21:02.279Z,79.06
2023-01-28T14:23:14.798Z,79.01
2023-01-28T14:25:38.135Z,79.32
2023-01-28T14:27:46.100Z,78.55
2023-01-28T14:30:07.036Z,79.77
2023-01-28T14:32:27.285Z,79.26
2023-01-28T14:34:33.609Z,79.58
2023-01-28T14:36:45.342Z,79.52
2023-01-28T14:38:51.646Z,79.82
2023-01-28T14:41:01.168Z,80.01
2023-01-28T14:43:06.671Z,80.30
2023-01-28T14:45:27.259Z,79.64
2023-01-28T14:47:55.361Z,79.58
2023-01-28T14:50:03.405Z,79.55
2023-01-28T14:52:42.942Z,78.81
2023-01-28T14:54:54.092Z,78.86
2023-01-28T14:57:09.135Z,79.41
2023-01-28T14:59:52.847Z,79.84
2023-01-28T15:02:05.022Z,79.74
2023-01-28T15:04:26.136Z,79.15
2023-01-28T15:06:37.243Z,79.71
2023-01-28T15:08:48.767Z,78.75
2023-01-28T15:10:57.028Z,79.59
2023-01-28T15:13:43.800Z,76.53
2023-01-28T15:15:52.317Z,73.24
2023-01-28T15:17:55.051Z,69.16
2023-01-28T15:19:58.592Z,70.06
2023-01-28T15:22:08.330Z,71.05
2023-01-28T15:24:17.148Z,72.38
2023-01-28T15:26:45.750Z,73.21
2023-01-28T15:28:55.429Z,72.18
2023-01-28T15:30:58.296Z,67.82
2023-01-28T15:33:11.971Z,69.41
2023-01-28T15:35:14.525Z,72.62
2023-01-28T15:37:18.895Z,74.59
2023-01-28T15:39:24.034Z,76.04
2023-01-28T15:41:34.831Z,77.64
2023-01-28T15:43:38.606Z,77.96
2023-01-28T15:45:49.127Z,78.13
2023-01-28T15:48:05.840Z,78.15
2023-01-28T15:50:23.688Z,78.71
2023-01-28T15:52:36.592Z,79.31
2023-01-28T15:54:45.814Z,79.41
2023-01-28T15:56:47.794Z,79.86
2023-01-28T15:58:52.157Z,79.37
2023-01-28T16:01:11.178Z,78.48
2023-01-28T16:03:22.795Z,78.99
2023-01-28T16:05:54.013Z,78.31
2023-01-28T16:07:57.798Z,78.62
2023-01-28T16:10:02.655Z,78.80
2023-01-28T16:12:08.197Z,78.94
2023-01-28T16:14:35.432Z,79.17
2023-01-28T16:16:38.773Z,78.96
2023-01-28T16:18:50.947Z,79.04
2023-01-28T16:20:54.067Z,79.29
2023-01-28T16:22:59.393Z,78.61
2023-01-28T16:25:02.402Z,78.53
2023-01-28T16:27:22.778Z,79.08
2023-01-28T16:29:26.647Z,78.78
2023-01-28T16:31:29.858Z,78.67
2023-01-28T16:33:32.838Z,79.12
2023-01-28T16:35:57.118Z,77.75
2023-01-28T16:37:56.778Z,77.32
2023-01-28T16:40:00.396Z,77.94
2023-01-28T16:42:04.593Z,78.29
2023-01-28T16:44:06.872Z,78.13
2023-01-28T16:46:19.177Z,78.18
2023-01-28T16:48:23.239Z,77.90
2023-01-28T16:50:25.658Z,77.52
2023-01-28T16:52:33.749Z,76.93
2023-01-28T16:54:48.518Z,77.07
2023-01-28T16:56:57.014Z,76.63
2023-01-28T16:58:59.717Z,75.76
2023-01-28T17:01:19.042Z,76.05
2023-01-28T17:03:25.146Z,75.93
2023-01-28T17:05:28.382Z,76.08
2023-01-28T17:07:37.681Z,76.26
2023-01-28T17:09:39.587Z,76.71
2023-01-28T17:12:02.236Z,77.13
2023-01-28T17:14:06.853Z,76.46
2023-01-28T17:16:10.886Z,76.40
2023-01-28T17:18:17.034Z,77.35
2023-01-28T17:20:20.213Z,77.73
2023-01-28T17:22:22.663Z,78.02
2023-01-28T17:24:32.144Z,77.74
2023-01-28T17:26:35.680Z,76.44
2023-01-28T17:28:37.774Z,71.86
2023-01-28T17:30:49.005Z,72.09
2023-01-28T17:32:58.859Z,70.38
2023-01-28T17:35:09.431Z,70.64
2023-01-28T17:37:11.511Z,72.25
2023-01-28T17:39:13.719Z,73.81
2023-01-28T17:41:18.276Z,75.08
2023-01-28T17:43:35.043Z,74.78
2023-01-28T17:45:37.737Z,71.35
2023-01-28T17:47:40.479Z,70.32
2023-01-28T17:49:44.765Z,69.95
2023-01-28T17:51:59.779Z,70.49
2023-01-28T17:54:02.162Z,71.19
2023-01-28T17:56:13.997Z,72.05
2023-01-28T17:58:16.424Z,72.45
2023-01-28T18:00:19.820Z,70.16
2023-01-28T18:02:23.759Z,68.53
2023-01-28T18:04:41.390Z,70.02
2023-01-28T18:06:49.448Z,70.50
2023-01-28T18:08:51.944Z,69.98
2023-01-28T18:11:03.032Z,70.63
2023-01-28T18:13:06.227Z,69.78
2023-01-28T18:15:11.150Z,70.25
2023-01-28T18:17:13.765Z,71.01
2023-01-28T18:19:17.073Z,70.61
2023-01-28T18:21:46.574Z,71.04
2023-01-28T18:23:57.196Z,71.36
2023-01-28T18:26:04.486Z,71.89
2023-01-28T18:28:08.595Z,72.37
2023-01-28T18:30:11.796Z,69.14
2023-01-28T18:32:15.813Z,67.63
2023-01-28T18:34:27.501Z,68.30
2023-01-28T18:36:31.508Z,68.00
2023-01-28T18:38:34.289Z,67.34
2023-01-28T18:40:36.947Z,67.88
2023-01-28T18:42:42.087Z,67.77
2023-01-28T18:44:46.622Z,67.66
2023-01-28T18:46:52.536Z,68.33
2023-01-28T18:48:59.134Z,68.24
2023-01-28T18:51:29.605Z,68.94
2023-01-28T18:53:35.808Z,69.65
2023-01-28T18:55:38.975Z,70.34
2023-01-28T18:57:46.474Z,70.00
2023-01-28T18:59:50.898Z,68.89
2023-01-28T19:02:02.625Z,66.01
2023-01-28T19:04:04.896Z,66.02
2023-01-28T19:06:11.107Z,65.30
2023-01-28T19:08:22.013Z,65.67
2023-01-28T19:10:32.776Z,66.69
2023-01-28T19:12:35.613Z,67.00
2023-01-28T19:14:40.985Z,66.90
2023-01-28T19:16:47.147Z,67.01
2023-01-28T19:19:01.245Z,67.85
2023-01-28T19:21:09.258Z,68.20
2023-01-28T19:23:15.204Z,68.46
2023-01-28T19:25:18.521Z,68.41
2023-01-28T19:27:32.720Z,67.65
2023-01-28T19:29:36.340Z,67.96
2023-01-28T19:31:40.693Z,67.91
2023-01-28T19:33:44.582Z,68.17
2023-01-28T19:36:04.315Z,68.75
2023-01-28T19:38:12.688Z,68.01
2023-01-28T19:40:17.872Z,68.18
2023-01-28T19:42:23.632Z,67.23
2023-01-28T19:44:38.587Z,66.37
2023-01-28T19:46:48.655Z,66.46
2023-01-28T19:48:57.183Z,66.33
2023-01-28T19:51:08.349Z,64.86
2023-01-28T19:53:19.975Z,64.21
2023-01-28T19:55:25.189Z,64.33
2023-01-28T19:57:37.407Z,65.34
2023-01-28T19:59:40.484Z,64.16
2023-01-28T20:01:45.670Z,63.22
2023-01-28T20:04:05.688Z,63.32
2023-01-28T20:06:16.978Z,62.80
2023-01-28T20:08:19.789Z,63.25
2023-01-28T20:10:29.504Z,64.13
2023-01-28T20:12:36.681Z,64.35
2023-01-28T20:15:22.928Z,64.09
2023-01-28T20:17:28.765Z,63.57
2023-01-28T20:19:31.226Z,64.94
2023-01-28T20:21:39.627Z,64.53
2023-01-28T20:23:49.275Z,64.86
2023-01-28T20:25:59.042Z,65.67
2023-01-28T20:28:05.192Z,66.55
2023-01-28T20:30:24.441Z,65.96
2023-01-28T20:32:33.296Z,66.75
2023-01-28T20:34:41.801Z,66.70
2023-01-28T20:36:53.565Z,65.35
2023-01-28T20:39:05.328Z,65.68
2023-01-28T20:41:29.414Z,64.04
2023-01-28T20:43:35.650Z,64.43
2023-01-28T20:45:44.826Z,64.00
2023-01-28T20:47:50.562Z,64.67
2023-01-28T20:49:53.640Z,63.77
2023-01-28T20:52:03.327Z,63.09
2023-01-28T20:54:18.940Z,63.82
2023-01-28T20:56:36.499Z,63.82
2023-01-28T20:58:39.301Z,64.64
2023-01-28T21:00:50.577Z,66.07
2023-01-28T21:02:55.472Z,67.43
2023-01-28T21:05:06.827Z,68.17
2023-01-28T21:07:13.975Z,68.10
2023-01-28T21:09:25.200Z,67.67
2023-01-28T21:11:37.128Z,66.50
2023-01-28T21:13:47.512Z,66.98
2023-01-28T21:15:57.624Z,67.58
2023-01-28T21:18:01.867Z,65.25
2023-01-28T21:20:11.220Z,66.00
2023-01-28T21:22:15.739Z,63.06
2023-01-28T21:24:31.226Z,63.71
2023-01-28T21:26:34.865Z,62.07
2023-01-28T21:28:44.448Z,61.57
2023-01-28T21:30:53.659Z,61.32
2023-01-28T21:32:57.923Z,61.86
2023-01-28T21:35:10.228Z,61.21
2023-01-28T21:37:22.449Z,62.22
2023-01-28T21:39:34.102Z,61.93
2023-01-28T21:41:50.204Z,62.62
2023-01-28T21:44:07.323Z,61.70
2023-01-28T21:46:12.465Z,61.34
2023-01-28T21:48:23.382Z,61.24
2023-01-28T21:50:52.280Z,62.17
2023-01-28T21:52:59.320Z,62.43
2023-01-28T21:55:02.547Z,63.20
2023-01-28T21:57:05.547Z,63.01
2023-01-28T21:59:33.635Z,64.27
2023-01-28T22:01:46.269Z,62.91
2023-01-28T22:03:57.543Z,63.61
2023-01-28T22:06:02.590Z,63.51
2023-01-28T22:08:17.893Z,63.45
2023-01-28T22:10:19.842Z,64.59
2023-01-28T22:12:28.370Z,65.22
2023-01-28T22:14:38.188Z,65.55
2023-01-28T22:16:41.429Z,64.74
2023-01-28T22:18:50.429Z,64.52
2023-01-28T22:21:04.359Z,64.27
2023-01-28T22:23:06.276Z,62.54
2023-01-28T22:25:15.423Z,63.13
2023-01-28T22:27:17.313Z,63.13
2023-01-28T22:29:23.119Z,64.07
2023-01-28T22:31:25.182Z,64.25
2023-01-28T22:33:28.236Z,65.40
2023-01-28T22:35:32.767Z,65.94
2023-01-28T22:37:38.767Z,65.56
2023-01-28T22:39:47.857Z,66.22
2023-01-28T22:41:49.853Z,65.97
2023-01-28T22:44:01.914Z,65.17
2023-01-28T22:46:08.140Z,65.61
2023-01-28T22:48:23.054Z,65.83
2023-01-28T22:50:27.004Z,66.01
2023-01-28T22:52:29.004Z,66.23
2023-01-28T22:54:33.079Z,66.24
2023-01-28T22:56:45.200Z,66.75
2023-01-28T22:58:47.814Z,66.50
2023-01-28T23:00:49.825Z,66.89
2023-01-28T23:02:53.770Z,66.83
2023-01-28T23:05:00.758Z,65.98
2023-01-28T23:07:02.661Z,65.52
2023-01-28T23:09:06.628Z,65.24
2023-01-28T23:11:15.455Z,66.01
2023-01-28T23:13:18.721Z,65.79
2023-01-28T23:15:41.717Z,65.10
2023-01-28T23:18:35.736Z,64.96
2023-01-28T23:21:17.716Z,65.60
2023-01-28T23:23:38.368Z,65.13
2023-01-28T23:25:58.773Z,66.11
2023-01-28T23:28:01.763Z,66.12
2023-01-28T23:30:11.855Z,66.36
2023-01-28T23:32:15.969Z,65.68
2023-01-28T23:34:18.482Z,66.21
2023-01-28T23:36:20.367Z,65.98
2023-01-28T23:38:42.547Z,65.46
2023-01-28T23:40:46.541Z,66.26
2023-01-28T23:42:50.885Z,65.88
2023-01-28T23:44:56.995Z,65.98
2023-01-28T23:47:00.126Z,65.76
2023-01-28T23:49:02.208Z,65.42
2023-01-28T23:51:07.021Z,65.19
2023-01-28T23:53:13.367Z,65.25
2023-01-28T23:55:16.154Z,65.47
2023-01-28T23:57:21.075Z,64.76
2023-01-28T23:59:23.072Z,64.78
